Ocean Tomo — 3FID9 — position and weather

sailwx.info

Track history (hours):
 
Tides and Currents Weather Stations Pressure Air Temp Water Temp Dewpoint Dewpoint Depression Visibility Wind Speed Wind Dir Waves Ship Positions

Ocean Tomo

Last reported at 2014-Jul-29 13:33 UTC. Time now 2014-Jul-29 22:54 UTC.
Position N 39°12' E 003°43'.

Length 190 m; draft 11.6 m.

Type: Ship. MMSI: 372951000.

Date/timePositionNaut miles runAvg speedWind from/ knotsBaromVisibWave heightAir tempDewpointWater temp
2014-Jul-29 13:33N 39°12' E 003°43'1211.8
2014-Jul-29 12:33N 39°05' E 003°30'1211.6
2014-Jul-29 11:33N 38°59' E 003°17'1111.3
2014-Jul-29 10:33N 38°53' E 003°05'1111.3
2014-Jul-29 09:33N 38°47' E 002°53'1211.6
2014-Jul-29 08:33N 38°40' E 002°40'1212.2
2014-Jul-29 07:33N 38°34' E 002°27'10312.9
2014-Jul-28 23:31N 37°39' E 000°36'2613.0
2014-Jul-28 21:30N 37°25' E 000°08'1313.2
2014-Jul-28 20:33N 37°18' W 000°05'1413.2
2014-Jul-28 19:31N 37°11' W 000°19'1313.1
2014-Jul-28 18:33N 37°04' W 000°33'1312.8
2014-Jul-28 17:33N 36°57' W 000°47'1312.8
2014-Jul-28 16:33N 36°50' W 001°00'1312.7
2014-Jul-28 15:33N 36°44' W 001°13'1312.9
2014-Jul-28 14:33N 36°37' W 001°27'1912.9
2014-Jul-28 13:04N 36°26' W 001°47'175 8.8
2014-Jul-27 17:16N 36°02' W 005°22'6 8.3
2014-Jul-27 16:31N 35°57' W 005°27'5313.0
2014-Jul-27 12:25N 35°57' W 006°33'1213.1
2014-Jul-27 11:29N 35°59' W 006°48'1513.1
2014-Jul-27 10:22N 36°02' W 007°05'3813.1
2014-Jul-27 07:26N 36°10' W 007°52'5513.2
2014-Jul-27 03:15N 36°22' W 008°59'1113.1
2014-Jul-27 02:24N 36°24' W 009°13'1112.7
2014-Jul-27 01:33N 36°26' W 009°26'1312.7
2014-Jul-27 00:30N 36°29' W 009°42'1212.6
2014-Jul-26 23:33N 36°31' W 009°57'2812.6
2014-Jul-26 21:18N 36°35' W 010°32'1012.6
2014-Jul-26 20:33N 36°36' W 010°43'1412.5
2014-Jul-26 19:24N 36°37' W 011°01'1012.1
2014-Jul-26 18:32N 36°38' W 011°14'1313.0
2014-Jul-26 17:33N 36°40' W 011°30'2712.9
2014-Jul-26 15:28N 36°43' W 012°03'1212.8
2014-Jul-26 14:31N 36°44' W 012°18'1413.1
2014-Jul-26 13:28N 36°46' W 012°35'5712.8
2014-Jul-26 09:03N 36°53' W 013°45'43212.5
2014-Jul-24 22:29N 37°29' W 022°46'2612.1
2014-Jul-24 20:19N 37°28' W 023°19'912.0
2014-Jul-24 19:34N 37°29' W 023°30'1312.6
2014-Jul-24 18:33N 37°29' W 023°46'1312.5
2014-Jul-24 17:33N 37°29' W 024°02'1212.4
2014-Jul-24 16:33N 37°29' W 024°18'1312.7
2014-Jul-24 15:34N 37°29' W 024°34'1313.1
2014-Jul-24 14:34N 37°30' W 024°50'1312.9
2014-Jul-24 13:33N 37°30' W 025°06'1312.7
2014-Jul-24 12:34N 37°30' W 025°22'1312.7
2014-Jul-24 11:34N 37°30' W 025°38'1312.6
2014-Jul-24 10:34N 37°29' W 025°54'1312.9
2014-Jul-24 09:34N 37°28' W 026°10'1312.5
2014-Jul-24 08:33N 37°28' W 026°26'1212.1
2014-Jul-24 07:33N 37°29' W 026°41'1212.5
2014-Jul-24 06:34N 37°29' W 026°57'1212.4
2014-Jul-24 05:33N 37°29' W 027°13'1313.0
2014-Jul-24 04:34N 37°29' W 027°29'1312.6
2014-Jul-24 03:34N 37°30' W 027°45'1212.4
2014-Jul-24 02:33N 37°30' W 028°01'1212.5
2014-Jul-24 01:34N 37°30' W 028°16'1212.2
2014-Jul-24 00:34N 37°30' W 028°32'1212.3
2014-Jul-23 23:34N 37°30' W 028°47'1212.3
2014-Jul-23 22:34N 37°31' W 029°03'1312.9
2014-Jul-23 21:33N 37°31' W 029°19'1312.5
2014-Jul-23 20:33N 37°32' W 029°35'1313.0
2014-Jul-23 19:33N 37°32' W 029°51'1312.7
2014-Jul-23 18:33N 37°32' W 030°07'1312.9
2014-Jul-23 17:34N 37°30' W 030°23'1312.7
2014-Jul-23 16:34N 37°29' W 030°39'1312.6
2014-Jul-23 15:34N 37°28' W 030°55'1312.5
2014-Jul-23 14:33N 37°27' W 031°11'1312.8
2014-Jul-23 13:33N 37°26' W 031°27'1312.7
2014-Jul-23 12:34N 37°25' W 031°43'1312.5
2014-Jul-23 11:31N 37°24' W 031°59'1212.3
2014-Jul-23 10:31N 37°22' W 032°15'1312.5
2014-Jul-23 09:30N 37°21' W 032°31'1212.3
2014-Jul-23 08:31N 37°19' W 032°46'2412.3
2014-Jul-23 06:33N 37°15' W 033°15'6212.4
2014-Jul-23 01:34N 37°11' W 034°33'  
Track history (hours):
 
Tides and Currents Weather Stations Pressure Air Temp Water Temp Dewpoint Dewpoint Depression Visibility Wind Speed Wind Dir Waves Ship Positions

Ocean Tomo

Last reported at 2014-Jul-29 13:33 UTC. Time now 2014-Jul-29 22:54 UTC.
Position N 39°12' E 003°43'.

Length 190 m; draft 11.6 m.

Type: Ship. MMSI: 372951000.

Date/timePositionNaut miles runAvg speedWind from/ knotsBaromVisibWave heightAir tempDewpointWater temp
2014-Jul-29 13:33N 39°12' E 003°43'1211.8
2014-Jul-29 12:33N 39°05' E 003°30'1211.6
2014-Jul-29 11:33N 38°59' E 003°17'1111.3
2014-Jul-29 10:33N 38°53' E 003°05'1111.3
2014-Jul-29 09:33N 38°47' E 002°53'1211.6
2014-Jul-29 08:33N 38°40' E 002°40'1212.2
2014-Jul-29 07:33N 38°34' E 002°27'10312.9
2014-Jul-28 23:31N 37°39' E 000°36'2613.0
2014-Jul-28 21:30N 37°25' E 000°08'1313.2
2014-Jul-28 20:33N 37°18' W 000°05'1413.2
2014-Jul-28 19:31N 37°11' W 000°19'1313.1
2014-Jul-28 18:33N 37°04' W 000°33'1312.8
2014-Jul-28 17:33N 36°57' W 000°47'1312.8
2014-Jul-28 16:33N 36°50' W 001°00'1312.7
2014-Jul-28 15:33N 36°44' W 001°13'1312.9
2014-Jul-28 14:33N 36°37' W 001°27'1912.9
2014-Jul-28 13:04N 36°26' W 001°47'175 8.8
2014-Jul-27 17:16N 36°02' W 005°22'6 8.3
2014-Jul-27 16:31N 35°57' W 005°27'5313.0
2014-Jul-27 12:25N 35°57' W 006°33'1213.1
2014-Jul-27 11:29N 35°59' W 006°48'1513.1
2014-Jul-27 10:22N 36°02' W 007°05'3813.1
2014-Jul-27 07:26N 36°10' W 007°52'5513.2
2014-Jul-27 03:15N 36°22' W 008°59'1113.1
2014-Jul-27 02:24N 36°24' W 009°13'1112.7
2014-Jul-27 01:33N 36°26' W 009°26'1312.7
2014-Jul-27 00:30N 36°29' W 009°42'1212.6
2014-Jul-26 23:33N 36°31' W 009°57'2812.6
2014-Jul-26 21:18N 36°35' W 010°32'1012.6
2014-Jul-26 20:33N 36°36' W 010°43'1412.5
2014-Jul-26 19:24N 36°37' W 011°01'1012.1
2014-Jul-26 18:32N 36°38' W 011°14'1313.0
2014-Jul-26 17:33N 36°40' W 011°30'2712.9
2014-Jul-26 15:28N 36°43' W 012°03'1212.8
2014-Jul-26 14:31N 36°44' W 012°18'1413.1
2014-Jul-26 13:28N 36°46' W 012°35'5712.8
2014-Jul-26 09:03N 36°53' W 013°45'43212.5
2014-Jul-24 22:29N 37°29' W 022°46'2612.1
2014-Jul-24 20:19N 37°28' W 023°19'912.0
2014-Jul-24 19:34N 37°29' W 023°30'1312.6
2014-Jul-24 18:33N 37°29' W 023°46'1312.5
2014-Jul-24 17:33N 37°29' W 024°02'1212.4
2014-Jul-24 16:33N 37°29' W 024°18'1312.7
2014-Jul-24 15:34N 37°29' W 024°34'1313.1
2014-Jul-24 14:34N 37°30' W 024°50'1312.9
2014-Jul-24 13:33N 37°30' W 025°06'1312.7
2014-Jul-24 12:34N 37°30' W 025°22'1312.7
2014-Jul-24 11:34N 37°30' W 025°38'1312.6
2014-Jul-24 10:34N 37°29' W 025°54'1312.9
2014-Jul-24 09:34N 37°28' W 026°10'1312.5
2014-Jul-24 08:33N 37°28' W 026°26'1212.1
2014-Jul-24 07:33N 37°29' W 026°41'1212.5
2014-Jul-24 06:34N 37°29' W 026°57'1212.4
2014-Jul-24 05:33N 37°29' W 027°13'1313.0
2014-Jul-24 04:34N 37°29' W 027°29'1312.6
2014-Jul-24 03:34N 37°30' W 027°45'1212.4
2014-Jul-24 02:33N 37°30' W 028°01'1212.5
2014-Jul-24 01:34N 37°30' W 028°16'1212.2
2014-Jul-24 00:34N 37°30' W 028°32'1212.3
2014-Jul-23 23:34N 37°30' W 028°47'1212.3
2014-Jul-23 22:34N 37°31' W 029°03'1312.9
2014-Jul-23 21:33N 37°31' W 029°19'1312.5
2014-Jul-23 20:33N 37°32' W 029°35'1313.0
2014-Jul-23 19:33N 37°32' W 029°51'1312.7
2014-Jul-23 18:33N 37°32' W 030°07'1312.9
2014-Jul-23 17:34N 37°30' W 030°23'1312.7
2014-Jul-23 16:34N 37°29' W 030°39'1312.6
2014-Jul-23 15:34N 37°28' W 030°55'1312.5
2014-Jul-23 14:33N 37°27' W 031°11'1312.8
2014-Jul-23 13:33N 37°26' W 031°27'1312.7
2014-Jul-23 12:34N 37°25' W 031°43'1312.5
2014-Jul-23 11:31N 37°24' W 031°59'1212.3
2014-Jul-23 10:31N 37°22' W 032°15'1312.5
2014-Jul-23 09:30N 37°21' W 032°31'1212.3
2014-Jul-23 08:31N 37°19' W 032°46'2412.3
2014-Jul-23 06:33N 37°15' W 033°15'6212.4
2014-Jul-23 01:34N 37°11' W 034°33'  

Dump ship's entire track history